createdAt,value
2023-04-09T00:00:16.972Z,101426.44
2023-04-09T00:03:04.485Z,101428.41
2023-04-09T00:05:32.538Z,101425.25
2023-04-09T00:08:00.540Z,101428.22
2023-04-09T00:10:29.508Z,101433.19
2023-04-09T00:12:57.297Z,101417.53
2023-04-09T00:15:31.271Z,101423.38
2023-04-09T00:17:59.939Z,101424.84
2023-04-09T00:20:27.595Z,101417.78
2023-04-09T00:22:56.468Z,101419.56
2023-04-09T00:25:24.690Z,101417.56
2023-04-09T00:27:52.614Z,101418.22
2023-04-09T00:30:20.982Z,101411.94
2023-04-09T00:32:50.087Z,101410.97
2023-04-09T00:35:17.674Z,101416.25
2023-04-09T00:37:45.430Z,101413.53
2023-04-09T00:40:13.138Z,101405.69
2023-04-09T00:42:41.774Z,101412.41
2023-04-09T00:45:09.958Z,101409.84
2023-04-09T00:47:38.580Z,101407.22
2023-04-09T00:50:06.943Z,101404.94
2023-04-09T00:52:35.111Z,101405.09
2023-04-09T00:55:05.244Z,101414.81
2023-04-09T00:57:33.102Z,101409.63
2023-04-09T01:00:00.772Z,101416.78
2023-04-09T01:02:28.699Z,101416.78
2023-04-09T01:04:57.317Z,101421.06
2023-04-09T01:07:40.068Z,101416.06
2023-04-09T01:10:20.745Z,101414.50
2023-04-09T01:13:03.565Z,101417.47
2023-04-09T01:15:36.955Z,101419.31
2023-04-09T01:18:11.989Z,101412.44
2023-04-09T01:20:44.012Z,101421.25
2023-04-09T01:23:20.077Z,101418.78
2023-04-09T01:26:02.382Z,101415.53
2023-04-09T01:28:55.027Z,101418.75
2023-04-09T01:31:30.055Z,101429.88
2023-04-09T01:33:59.149Z,101426.03
2023-04-09T01:36:28.828Z,101430.44
2023-04-09T01:38:57.287Z,101430.75
2023-04-09T01:41:26.229Z,101433.53
2023-04-09T01:43:54.177Z,101423.03
2023-04-09T01:46:22.448Z,101430.97
2023-04-09T01:48:51.365Z,101433.97
2023-04-09T01:51:19.670Z,101428.44
2023-04-09T01:53:48.562Z,101430.59
2023-04-09T01:56:16.237Z,101431.38
2023-04-09T01:58:43.970Z,101436.50
2023-04-09T02:01:24.517Z,101432.31
2023-04-09T02:04:10.033Z,101434.41
2023-04-09T02:06:42.615Z,101432.72
2023-04-09T02:09:11.514Z,101431.06
2023-04-09T02:11:41.945Z,101433.78
2023-04-09T02:14:12.009Z,101434.94
2023-04-09T02:16:41.606Z,101439.28
2023-04-09T02:19:09.393Z,101426.03
2023-04-09T02:21:37.421Z,101425.78
2023-04-09T02:24:05.140Z,101438.31
2023-04-09T02:26:32.846Z,101429.44
2023-04-09T02:29:03.062Z,101434.00
2023-04-09T02:31:30.696Z,101427.69
2023-04-09T02:33:58.554Z,101435.38
2023-04-09T02:36:26.617Z,101432.84
2023-04-09T02:38:54.636Z,101436.81
2023-04-09T02:41:27.365Z,101432.53
2023-04-09T02:43:55.045Z,101443.81
2023-04-09T02:46:22.620Z,101438.59
2023-04-09T02:48:52.400Z,101444.81
2023-04-09T02:51:21.168Z,101446.69
2023-04-09T02:53:55.079Z,101452.72
2023-04-09T02:56:22.763Z,101453.53
2023-04-09T02:58:54.094Z,101453.03
2023-04-09T03:01:22.883Z,101454.69
2023-04-09T03:03:51.338Z,101457.44
2023-04-09T03:06:19.026Z,101458.41
2023-04-09T03:08:49.208Z,101465.47
2023-04-09T03:11:18.107Z,101467.47
2023-04-09T03:13:45.853Z,101473.63
2023-04-09T03:16:14.068Z,101474.22
2023-04-09T03:18:41.966Z,101472.53
2023-04-09T03:21:10.331Z,101474.22
2023-04-09T03:23:46.393Z,101483.72
2023-04-09T03:26:14.232Z,101480.06
2023-04-09T03:28:48.981Z,101486.13
2023-04-09T03:31:17.598Z,101486.28
2023-04-09T03:33:46.683Z,101492.22
2023-04-09T03:36:18.444Z,101491.03
2023-04-09T03:38:55.421Z,101487.31
2023-04-09T03:41:31.221Z,101486.38
2023-04-09T03:44:02.465Z,101496.81
2023-04-09T03:46:36.474Z,101500.19
2023-04-09T03:49:04.966Z,101485.00
2023-04-09T03:51:38.884Z,101494.63
2023-04-09T03:54:06.761Z,101494.47
2023-04-09T03:56:35.381Z,101502.31
2023-04-09T03:59:09.079Z,101493.56
2023-04-09T04:01:40.723Z,101496.75
2023-04-09T04:04:08.412Z,101505.53
2023-04-09T04:06:51.562Z,101508.13
2023-04-09T04:09:19.417Z,101513.22
2023-04-09T04:11:55.980Z,101511.22
2023-04-09T04:14:27.403Z,101509.59
2023-04-09T04:17:02.360Z,101508.25
2023-04-09T04:19:31.324Z,101503.09
2023-04-09T04:21:59.804Z,101519.97
2023-04-09T04:24:27.248Z,101524.22
2023-04-09T04:26:55.135Z,101521.59
2023-04-09T04:29:24.255Z,101525.50
2023-04-09T04:31:55.717Z,101525.94
2023-04-09T04:34:25.984Z,101517.84
2023-04-09T04:37:01.680Z,101526.22
2023-04-09T04:39:36.526Z,101533.00
2023-04-09T04:42:09.616Z,101531.19
2023-04-09T04:44:37.591Z,101536.47
2023-04-09T04:47:15.176Z,101532.03
2023-04-09T04:49:43.363Z,101527.28
2023-04-09T04:52:11.816Z,101543.47
2023-04-09T04:54:44.030Z,101536.84
2023-04-09T04:57:17.192Z,101540.06
2023-04-09T04:59:45.237Z,101546.16
2023-04-09T05:02:14.507Z,101544.19
2023-04-09T05:04:51.847Z,101548.63
2023-04-09T05:07:29.708Z,101551.78
2023-04-09T05:09:58.816Z,101547.97
2023-04-09T05:12:36.752Z,101557.19
2023-04-09T05:15:07.893Z,101559.16
2023-04-09T05:17:38.258Z,101553.66
2023-04-09T05:20:07.984Z,101553.59
2023-04-09T05:22:50.153Z,101559.88
2023-04-09T05:25:17.880Z,101555.84
2023-04-09T05:27:45.472Z,101561.72
2023-04-09T05:30:13.720Z,101559.94
2023-04-09T05:32:45.288Z,101568.41
2023-04-09T05:35:13.446Z,101565.44
2023-04-09T05:37:44.369Z,101570.97
2023-04-09T05:40:13.196Z,101568.28
2023-04-09T05:42:41.097Z,101570.19
2023-04-09T05:45:24.438Z,101575.38
2023-04-09T05:47:54.819Z,101574.56
2023-04-09T05:50:23.958Z,101575.16
2023-04-09T05:52:57.176Z,101580.94
2023-04-09T05:55:33.018Z,101580.19
2023-04-09T05:58:02.011Z,101589.53
2023-04-09T06:00:34.608Z,101591.44
2023-04-09T06:03:03.854Z,101596.06
2023-04-09T06:05:31.839Z,101590.53
2023-04-09T06:07:59.459Z,101598.00
2023-04-09T06:10:27.377Z,101606.59
2023-04-09T06:12:55.120Z,101599.00
2023-04-09T06:15:25.224Z,101603.75
2023-04-09T06:17:55.663Z,101601.97
2023-04-09T06:20:24.379Z,101598.47
2023-04-09T06:22:57.631Z,101600.97
2023-04-09T06:25:26.389Z,101609.13
2023-04-09T06:27:54.125Z,101605.38
2023-04-09T06:30:21.980Z,101607.06
2023-04-09T06:32:54.633Z,101603.69
2023-04-09T06:35:23.344Z,101607.59
2023-04-09T06:37:52.323Z,101613.63
2023-04-09T06:40:22.979Z,101614.53
2023-04-09T06:42:51.058Z,101622.00
2023-04-09T06:45:28.104Z,101622.41
2023-04-09T06:47:56.059Z,101631.53
2023-04-09T06:50:26.661Z,101626.47
2023-04-09T06:52:55.366Z,101634.22
2023-04-09T06:55:23.026Z,101638.41
2023-04-09T06:57:50.907Z,101643.84
2023-04-09T07:00:19.441Z,101650.59
2023-04-09T07:03:09.208Z,101642.16
2023-04-09T07:05:37.326Z,101656.28
2023-04-09T07:08:05.279Z,101651.59
2023-04-09T07:10:42.385Z,101662.41
2023-04-09T07:13:13.096Z,101657.28
2023-04-09T07:15:42.450Z,101659.75
2023-04-09T07:18:11.891Z,101664.91
2023-04-09T07:20:40.372Z,101659.75
2023-04-09T07:23:07.941Z,101657.09
2023-04-09T07:25:35.489Z,101665.59
2023-04-09T07:28:03.407Z,101659.81
2023-04-09T07:30:31.822Z,101655.88
2023-04-09T07:33:00.044Z,101660.72
2023-04-09T07:35:27.880Z,101661.25
2023-04-09T07:37:55.906Z,101658.34
2023-04-09T07:40:25.245Z,101659.84
2023-04-09T07:42:53.894Z,101651.97
2023-04-09T07:45:21.710Z,101645.47
2023-04-09T07:47:55.536Z,101651.03
2023-04-09T07:50:23.742Z,101642.94
2023-04-09T07:52:51.216Z,101650.81
2023-04-09T07:55:20.661Z,101647.19
2023-04-09T07:57:51.709Z,101645.56
2023-04-09T08:00:23.592Z,101643.06
2023-04-09T08:02:57.784Z,101643.88
2023-04-09T08:05:25.697Z,101643.94
2023-04-09T08:07:57.865Z,101642.72
2023-04-09T08:10:25.592Z,101640.88
2023-04-09T08:12:53.365Z,101641.81
2023-04-09T08:15:29.278Z,101642.66
2023-04-09T08:17:57.763Z,101647.81
2023-04-09T08:20:25.364Z,101640.59
2023-04-09T08:22:55.748Z,101637.22
2023-04-09T08:25:23.441Z,101632.00
2023-04-09T08:27:51.035Z,101641.31
2023-04-09T08:30:20.088Z,101629.19
2023-04-09T08:32:48.583Z,101630.91
2023-04-09T08:35:16.172Z,101631.13
2023-04-09T08:37:44.026Z,101619.16
2023-04-09T08:40:12.070Z,101622.59
2023-04-09T08:42:47.428Z,101621.44
2023-04-09T08:45:15.084Z,101621.28
2023-04-09T08:47:44.648Z,101614.63
2023-04-09T08:50:14.375Z,101619.28
2023-04-09T08:52:42.859Z,101614.72
2023-04-09T08:55:12.046Z,101620.78
2023-04-09T08:57:40.196Z,101621.81
2023-04-09T09:00:11.082Z,101618.44
2023-04-09T09:02:40.251Z,101619.28
2023-04-09T09:05:08.186Z,101623.63
2023-04-09T09:07:36.379Z,101616.88
2023-04-09T09:10:04.605Z,101630.34
2023-04-09T09:12:36.461Z,101630.91
2023-04-09T09:15:05.327Z,101635.16
2023-04-09T09:17:53.024Z,101633.19
2023-04-09T09:20:21.193Z,101633.63
2023-04-09T09:22:55.512Z,101650.94
2023-04-09T09:25:25.914Z,101647.50
2023-04-09T09:27:55.445Z,101649.22
2023-04-09T09:30:27.634Z,101657.34
2023-04-09T09:33:06.045Z,101661.09
2023-04-09T09:35:57.863Z,101664.16
2023-04-09T09:38:25.608Z,101666.53
2023-04-09T09:40:55.245Z,101657.25
2023-04-09T09:43:25.063Z,101668.41
2023-04-09T09:45:53.750Z,101667.34
2023-04-09T09:48:21.189Z,101673.97
2023-04-09T09:50:51.520Z,101681.38
2023-04-09T09:53:24.851Z,101682.47
2023-04-09T09:55:57.307Z,101684.56
2023-04-09T09:58:31.849Z,101689.22
2023-04-09T10:01:02.862Z,101683.31
2023-04-09T10:03:34.622Z,101695.09
2023-04-09T10:06:03.321Z,101698.84
2023-04-09T10:08:34.194Z,101701.78
2023-04-09T10:11:02.860Z,101702.78
2023-04-09T10:13:38.877Z,101707.34
2023-04-09T10:16:08.541Z,101710.16
2023-04-09T10:18:37.192Z,101711.94
2023-04-09T10:21:26.850Z,101713.59
2023-04-09T10:23:57.459Z,101714.34
2023-04-09T10:26:27.913Z,101713.59
2023-04-09T10:29:08.742Z,101712.81
2023-04-09T10:31:53.183Z,101707.13
2023-04-09T10:34:26.966Z,101715.63
2023-04-09T10:36:59.799Z,101717.06
2023-04-09T10:39:30.724Z,101717.53
2023-04-09T10:42:04.884Z,101716.59
2023-04-09T10:44:38.106Z,101716.28
2023-04-09T10:47:09.070Z,101709.72
2023-04-09T10:49:41.830Z,101719.19
2023-04-09T10:52:12.645Z,101712.56
2023-04-09T10:54:46.751Z,101708.34
2023-04-09T10:57:23.127Z,101710.00
2023-04-09T10:59:55.466Z,101712.00
2023-04-09T11:02:45.761Z,101709.22
2023-04-09T11:05:40.072Z,101714.84
2023-04-09T11:08:12.514Z,101720.44
2023-04-09T11:10:44.985Z,101714.59
2023-04-09T11:13:15.380Z,101706.56
2023-04-09T11:15:47.856Z,101709.38
2023-04-09T11:18:27.962Z,101711.19
2023-04-09T11:21:04.494Z,101710.88
2023-04-09T11:23:33.114Z,101705.53
2023-04-09T11:26:02.072Z,101703.75
2023-04-09T11:28:49.566Z,101688.84
2023-04-09T11:31:29.169Z,101693.19
2023-04-09T11:33:59.249Z,101687.13
2023-04-09T11:36:27.969Z,101687.97
2023-04-09T11:38:56.826Z,101683.47
2023-04-09T11:41:34.965Z,101679.03
2023-04-09T11:44:08.433Z,101682.69
2023-04-09T11:46:45.606Z,101678.97
2023-04-09T11:49:17.567Z,101679.75
2023-04-09T11:51:46.195Z,101681.19
2023-04-09T11:54:20.843Z,101675.28
2023-04-09T11:57:08.256Z,101675.31
2023-04-09T11:59:39.112Z,101675.16
2023-04-09T12:02:19.433Z,101674.72
2023-04-09T12:04:51.172Z,101666.41
2023-04-09T12:07:19.178Z,101663.84
2023-04-09T12:09:48.545Z,101660.69
2023-04-09T12:12:20.882Z,101661.97
2023-04-09T12:14:57.011Z,101661.22
2023-04-09T12:17:27.289Z,101658.53
2023-04-09T12:20:14.291Z,101665.72
2023-04-09T12:23:03.820Z,101659.19
2023-04-09T12:25:41.730Z,101656.25
2023-04-09T12:28:18.250Z,101656.22
2023-04-09T12:30:48.288Z,101654.13
2023-04-09T12:33:21.905Z,101657.38
2023-04-09T12:36:02.902Z,101652.81
2023-04-09T12:38:33.567Z,101649.38
2023-04-09T12:41:04.963Z,101650.09
2023-04-09T12:43:32.587Z,101653.59
2023-04-09T12:46:00.316Z,101649.19
2023-04-09T12:48:29.005Z,101644.75
2023-04-09T12:50:59.582Z,101642.84
2023-04-09T12:53:27.869Z,101644.13
2023-04-09T12:55:58.382Z,101641.59
2023-04-09T12:58:28.375Z,101637.16
2023-04-09T13:00:57.553Z,101633.09
2023-04-09T13:03:25.910Z,101631.38
2023-04-09T13:05:54.733Z,101624.31
2023-04-09T13:08:22.271Z,101628.75
2023-04-09T13:10:50.780Z,101625.38
2023-04-09T13:13:19.732Z,101625.50
2023-04-09T13:15:49.965Z,101621.19
2023-04-09T13:18:17.993Z,101619.19
2023-04-09T13:20:47.558Z,101626.56
2023-04-09T13:23:16.529Z,101628.06
2023-04-09T13:25:44.069Z,101627.03
2023-04-09T13:28:11.686Z,101620.19
2023-04-09T13:30:40.547Z,101625.09
2023-04-09T13:33:27.950Z,101619.88
2023-04-09T13:36:01.188Z,101616.44
2023-04-09T13:38:30.148Z,101612.06
2023-04-09T13:40:57.712Z,101617.13
2023-04-09T13:43:28.126Z,101614.59
2023-04-09T13:45:59.576Z,101607.16
2023-04-09T13:48:27.296Z,101607.34
2023-04-09T13:50:55.290Z,101604.69
2023-04-09T13:53:25.197Z,101605.47
2023-04-09T13:55:52.761Z,101599.66
2023-04-09T13:58:22.554Z,101602.22
2023-04-09T14:00:51.543Z,101601.09
2023-04-09T14:03:19.273Z,101605.13
2023-04-09T14:05:49.220Z,101593.56
2023-04-09T14:08:18.959Z,101591.72
2023-04-09T14:10:49.893Z,101592.47
2023-04-09T14:13:17.689Z,101589.00
2023-04-09T14:15:46.317Z,101593.63
2023-04-09T14:18:15.509Z,101592.22
2023-04-09T14:20:44.577Z,101588.13
2023-04-09T14:23:12.294Z,101589.66
2023-04-09T14:25:39.912Z,101591.97
2023-04-09T14:28:08.454Z,101585.97
2023-04-09T14:30:40.633Z,101589.59
2023-04-09T14:33:28.261Z,101590.00
2023-04-09T14:35:58.861Z,101588.22
2023-04-09T14:38:37.616Z,101594.50
2023-04-09T14:41:05.528Z,101599.41
2023-04-09T14:43:33.957Z,101592.50
2023-04-09T14:46:04.101Z,101596.81
2023-04-09T14:48:34.879Z,101594.38
2023-04-09T14:51:11.457Z,101593.78
2023-04-09T14:53:41.581Z,101596.28
2023-04-09T14:56:21.789Z,101594.78
2023-04-09T14:58:49.636Z,101586.69
2023-04-09T15:01:26.883Z,101588.06
2023-04-09T15:04:14.529Z,101590.66
2023-04-09T15:06:52.743Z,101594.78
2023-04-09T15:09:20.805Z,101597.59
2023-04-09T15:11:48.428Z,101592.16
2023-04-09T15:14:17.787Z,101582.72
2023-04-09T15:16:48.503Z,101595.22
2023-04-09T15:19:18.690Z,101587.41
2023-04-09T15:21:46.508Z,101589.41
2023-04-09T15:24:18.360Z,101586.81
2023-04-09T15:26:47.898Z,101586.00
2023-04-09T15:29:22.557Z,101578.59
2023-04-09T15:31:56.478Z,101580.69
2023-04-09T15:34:32.864Z,101578.84
2023-04-09T15:37:03.543Z,101576.41
2023-04-09T15:39:32.575Z,101575.69
2023-04-09T15:42:01.920Z,101576.53
2023-04-09T15:44:31.723Z,101582.28
2023-04-09T15:46:59.333Z,101567.53
2023-04-09T15:49:27.619Z,101571.16
2023-04-09T15:51:59.789Z,101566.00
2023-04-09T15:54:27.448Z,101561.50
2023-04-09T15:57:04.900Z,101564.63
2023-04-09T15:59:33.825Z,101563.91
2023-04-09T16:02:04.600Z,101568.88
2023-04-09T16:04:39.071Z,101558.63
2023-04-09T16:07:07.176Z,101556.16
2023-04-09T16:09:39.978Z,101556.09
2023-04-09T16:12:12.490Z,101558.81
2023-04-09T16:14:43.529Z,101554.38
2023-04-09T16:17:12.446Z,101550.72
2023-04-09T16:19:44.089Z,101549.88
2023-04-09T16:22:14.910Z,101552.38
2023-04-09T16:24:46.997Z,101553.34
2023-04-09T16:27:22.871Z,101556.97
2023-04-09T16:29:57.604Z,101558.44
2023-04-09T16:32:45.133Z,101554.25
2023-04-09T16:35:12.753Z,101559.47
2023-04-09T16:37:43.168Z,101560.41
2023-04-09T16:40:10.941Z,101556.84
2023-04-09T16:42:42.137Z,101564.06
2023-04-09T16:45:11.934Z,101564.13
2023-04-09T16:47:59.448Z,101569.28
2023-04-09T16:50:27.739Z,101570.88
2023-04-09T16:52:57.111Z,101579.13
2023-04-09T16:55:25.424Z,101570.59
2023-04-09T16:57:56.357Z,101581.78
2023-04-09T17:00:28.674Z,101585.22
2023-04-09T17:02:58.148Z,101582.31
2023-04-09T17:05:25.879Z,101578.00
2023-04-09T17:07:53.703Z,101585.94
2023-04-09T17:10:23.096Z,101586.84
2023-04-09T17:12:51.660Z,101588.72
2023-04-09T17:15:22.739Z,101588.31
2023-04-09T17:17:53.426Z,101593.38
2023-04-09T17:20:22.801Z,101589.81
2023-04-09T17:23:00.978Z,101595.09
2023-04-09T17:25:32.177Z,101587.53
2023-04-09T17:28:01.760Z,101591.13
2023-04-09T17:30:35.342Z,101587.69
2023-04-09T17:33:22.832Z,101596.03
2023-04-09T17:36:01.620Z,101595.38
2023-04-09T17:38:36.727Z,101587.38
2023-04-09T17:41:06.370Z,101587.78
2023-04-09T17:43:35.094Z,101593.28
2023-04-09T17:46:03.369Z,101600.28
2023-04-09T17:48:32.769Z,101595.84
2023-04-09T17:51:00.576Z,101605.38
2023-04-09T17:53:28.142Z,101604.72
2023-04-09T17:55:56.080Z,101607.41
2023-04-09T17:58:27.086Z,101602.06
2023-04-09T18:00:55.746Z,101608.25
2023-04-09T18:03:23.655Z,101599.78
2023-04-09T18:05:53.856Z,101603.41
2023-04-09T18:08:21.695Z,101600.72
2023-04-09T18:11:05.240Z,101598.06
2023-04-09T18:13:39.700Z,101600.84
2023-04-09T18:16:12.413Z,101605.13
2023-04-09T18:18:45.380Z,101605.63
2023-04-09T18:21:17.806Z,101605.50
2023-04-09T18:23:47.590Z,101610.25
2023-04-09T18:26:19.073Z,101609.88
2023-04-09T18:28:47.257Z,101607.78
2023-04-09T18:31:34.693Z,101613.94
2023-04-09T18:34:02.618Z,101611.19
2023-04-09T18:36:35.616Z,101613.94
2023-04-09T18:39:09.534Z,101612.50
2023-04-09T18:41:37.083Z,101610.91
2023-04-09T18:44:05.363Z,101615.31
2023-04-09T18:46:33.068Z,101604.94
2023-04-09T18:49:04.012Z,101609.41
2023-04-09T18:51:33.003Z,101609.63
2023-04-09T18:54:06.400Z,101612.91
2023-04-09T18:56:36.602Z,101616.38
2023-04-09T18:59:04.105Z,101614.78
2023-04-09T19:01:31.734Z,101614.78
2023-04-09T19:03:59.595Z,101615.69
2023-04-09T19:06:28.022Z,101611.09
2023-04-09T19:08:58.339Z,101605.53
2023-04-09T19:11:32.499Z,101599.47
2023-04-09T19:14:00.324Z,101605.63
2023-04-09T19:16:28.531Z,101601.25
2023-04-09T19:18:58.357Z,101600.31
2023-04-09T19:21:26.615Z,101599.47
2023-04-09T19:23:54.174Z,101603.81
2023-04-09T19:26:22.276Z,101598.69
2023-04-09T19:28:49.881Z,101608.19
2023-04-09T19:31:24.053Z,101614.09
2023-04-09T19:33:51.822Z,101608.63
2023-04-09T19:36:19.651Z,101608.63
2023-04-09T19:38:47.077Z,101607.16
2023-04-09T19:41:14.568Z,101606.53
2023-04-09T19:43:42.409Z,101608.88
2023-04-09T19:46:09.883Z,101603.66
2023-04-09T19:48:38.100Z,101609.88
2023-04-09T19:51:07.237Z,101608.16
2023-04-09T19:53:36.402Z,101606.38
2023-04-09T19:56:04.014Z,101607.16
2023-04-09T19:58:32.775Z,101609.75
2023-04-09T20:01:01.729Z,101609.13
2023-04-09T20:03:34.416Z,101610.84
2023-04-09T20:06:10.578Z,101609.88
2023-04-09T20:08:38.406Z,101609.13
2023-04-09T20:11:07.023Z,101610.03
2023-04-09T20:13:35.172Z,101608.94
2023-04-09T20:16:02.992Z,101610.59
2023-04-09T20:18:32.174Z,101607.06
2023-04-09T20:21:00.748Z,101597.75
2023-04-09T20:23:28.314Z,101607.31
2023-04-09T20:25:56.327Z,101600.16
2023-04-09T20:28:24.900Z,101604.41
2023-04-09T20:30:52.336Z,101603.53
2023-04-09T20:33:19.865Z,101603.59
2023-04-09T20:35:48.328Z,101597.38
2023-04-09T20:38:15.946Z,101600.38
2023-04-09T20:40:44.426Z,101596.97
2023-04-09T20:43:11.962Z,101592.69
2023-04-09T20:45:39.732Z,101590.84
2023-04-09T20:48:08.404Z,101599.59
2023-04-09T20:50:36.849Z,101595.47
2023-04-09T20:53:04.452Z,101586.09
2023-04-09T20:55:32.360Z,101585.56
2023-04-09T20:58:00.312Z,101577.63
2023-04-09T21:00:28.682Z,101578.66
2023-04-09T21:02:56.686Z,101589.38
2023-04-09T21:05:28.649Z,101586.84
2023-04-09T21:07:58.147Z,101580.88
2023-04-09T21:10:25.692Z,101575.91
2023-04-09T21:12:56.552Z,101572.63
2023-04-09T21:15:25.673Z,101572.63
2023-04-09T21:17:53.524Z,101571.69
2023-04-09T21:20:21.769Z,101575.06
2023-04-09T21:22:49.279Z,101578.38
2023-04-09T21:25:16.775Z,101590.50
2023-04-09T21:27:51.825Z,101590.44
2023-04-09T21:30:20.384Z,101594.00
2023-04-09T21:32:47.975Z,101593.31
2023-04-09T21:35:15.511Z,101597.69
2023-04-09T21:37:43.359Z,101600.06
2023-04-09T21:40:11.374Z,101595.00
2023-04-09T21:42:39.146Z,101599.47
2023-04-09T21:45:07.802Z,101604.59
2023-04-09T21:47:38.035Z,101599.13
2023-04-09T21:50:08.503Z,101604.84
2023-04-09T21:52:36.630Z,101602.50
2023-04-09T21:55:04.449Z,101589.38
2023-04-09T21:57:32.208Z,101595.50
2023-04-09T22:00:00.401Z,101595.44
2023-04-09T22:02:28.346Z,101592.69
2023-04-09T22:04:56.225Z,101591.06
2023-04-09T22:07:25.825Z,101593.66
2023-04-09T22:09:57.630Z,101588.38
2023-04-09T22:12:33.512Z,101590.97
2023-04-09T22:15:03.618Z,101595.16
2023-04-09T22:17:32.091Z,101595.16
2023-04-09T22:20:08.246Z,101595.63
2023-04-09T22:22:37.897Z,101592.59
2023-04-09T22:25:07.096Z,101600.44
2023-04-09T22:27:38.387Z,101600.09
2023-04-09T22:30:07.236Z,101595.63
2023-04-09T22:32:54.662Z,101599.94
2023-04-09T22:35:22.273Z,101593.03
2023-04-09T22:37:50.245Z,101593.25
2023-04-09T22:40:17.775Z,101596.81
2023-04-09T22:42:48.358Z,101589.44
2023-04-09T22:45:16.687Z,101588.50
2023-04-09T22:47:44.553Z,101595.44
2023-04-09T22:50:13.541Z,101591.38
2023-04-09T22:52:41.727Z,101592.94
2023-04-09T22:55:10.281Z,101597.59
2023-04-09T22:57:43.065Z,101591.53
2023-04-09T23:00:11.386Z,101602.00
2023-04-09T23:02:39.135Z,101590.03
2023-04-09T23:05:08.174Z,101591.66
2023-04-09T23:07:36.856Z,101589.72
2023-04-09T23:10:04.716Z,101587.09
2023-04-09T23:12:33.513Z,101592.47
2023-04-09T23:15:01.119Z,101592.34
2023-04-09T23:17:28.660Z,101590.75
2023-04-09T23:19:57.137Z,101586.38
2023-04-09T23:22:26.316Z,101586.38
2023-04-09T23:24:53.751Z,101584.94
2023-04-09T23:27:22.813Z,101584.88
2023-04-09T23:29:50.310Z,101578.09
2023-04-09T23:32:22.085Z,101581.69
2023-04-09T23:34:51.152Z,101579.25
2023-04-09T23:37:19.203Z,101574.97
2023-04-09T23:39:47.968Z,101576.72
2023-04-09T23:42:15.672Z,101574.13
2023-04-09T23:44:44.162Z,101569.13
2023-04-09T23:47:13.798Z,101570.28
2023-04-09T23:49:41.482Z,101577.41
2023-04-09T23:52:09.196Z,101573.91
2023-04-09T23:54:37.342Z,101572.41
2023-04-09T23:57:04.821Z,101579.53
2023-04-09T23:59:35.940Z,101581.66
